createdAt,value
2019-03-15T00:00:24.002Z,5.13
2019-03-15T00:02:50.502Z,5.00
2019-03-15T00:05:17.968Z,5.47
2019-03-15T00:07:44.137Z,4.60
2019-03-15T00:10:10.605Z,4.77
2019-03-15T00:12:37.884Z,5.50
2019-03-15T00:15:06.875Z,4.80
2019-03-15T00:17:33.120Z,4.60
2019-03-15T00:19:59.354Z,5.60
2019-03-15T00:22:26.774Z,5.03
2019-03-15T00:24:53.001Z,4.70
2019-03-15T00:27:19.124Z,5.17
2019-03-15T00:29:45.309Z,5.23
2019-03-15T00:32:12.955Z,5.53
2019-03-15T00:34:39.068Z,4.80
2019-03-15T00:37:05.181Z,4.47
2019-03-15T00:39:31.293Z,4.77
2019-03-15T00:41:57.607Z,4.83
2019-03-15T00:44:23.738Z,4.87
2019-03-15T00:46:49.860Z,5.00
2019-03-15T00:49:15.985Z,5.10
2019-03-15T00:51:42.090Z,5.43
2019-03-15T00:54:09.303Z,4.60
2019-03-15T00:56:35.491Z,4.63
2019-03-15T00:59:01.847Z,5.33
2019-03-15T01:01:27.979Z,4.83
2019-03-15T01:03:55.410Z,4.80
2019-03-15T01:06:21.631Z,4.77
2019-03-15T01:08:47.912Z,5.70
2019-03-15T01:11:13.995Z,4.53
2019-03-15T01:13:40.086Z,3.90
2019-03-15T01:16:06.431Z,5.10
2019-03-15T01:18:32.516Z,4.67
2019-03-15T01:20:59.742Z,5.30
2019-03-15T01:23:25.847Z,5.20
2019-03-15T01:25:52.065Z,4.80
2019-03-15T01:28:18.282Z,4.97
2019-03-15T01:30:44.389Z,4.80
2019-03-15T01:33:10.525Z,4.80
2019-03-15T01:35:36.653Z,4.70
2019-03-15T01:38:02.982Z,4.73
2019-03-15T01:40:30.077Z,4.00
2019-03-15T01:42:56.396Z,4.60
2019-03-15T01:45:22.510Z,4.87
2019-03-15T01:47:48.697Z,4.00
2019-03-15T01:50:14.982Z,4.63
2019-03-15T01:52:41.242Z,4.77
2019-03-15T01:55:07.424Z,5.13
2019-03-15T01:57:33.744Z,4.40
2019-03-15T01:59:59.971Z,4.57
2019-03-15T02:02:26.087Z,4.27
2019-03-15T02:04:52.294Z,4.40
2019-03-15T02:07:18.517Z,4.63
2019-03-15T02:09:44.736Z,4.87
2019-03-15T02:12:10.810Z,4.73
2019-03-15T02:14:36.930Z,4.47
2019-03-15T02:17:03.119Z,4.57
2019-03-15T02:19:29.235Z,4.70
2019-03-15T02:21:55.385Z,4.37
2019-03-15T02:24:21.477Z,4.83
2019-03-15T02:26:48.464Z,4.07
2019-03-15T02:29:14.744Z,4.20
2019-03-15T02:31:40.843Z,4.20
2019-03-15T02:34:07.033Z,4.23
2019-03-15T02:36:33.138Z,4.70
2019-03-15T02:38:59.235Z,5.17
2019-03-15T02:41:25.464Z,3.70
2019-03-15T02:43:51.635Z,4.37
2019-03-15T02:46:17.871Z,4.13
2019-03-15T02:48:44.054Z,4.00
2019-03-15T02:51:10.276Z,4.30
2019-03-15T02:53:36.517Z,4.23
2019-03-15T02:56:02.865Z,4.03
2019-03-15T02:58:29.069Z,4.50
2019-03-15T03:00:55.202Z,4.67
2019-03-15T03:03:21.545Z,4.70
2019-03-15T03:05:47.723Z,4.60
2019-03-15T03:08:14.390Z,5.17
2019-03-15T03:10:41.083Z,6.50
2019-03-15T03:13:07.207Z,6.77
2019-03-15T03:15:33.427Z,6.90
2019-03-15T03:17:59.556Z,6.93
2019-03-15T03:20:25.619Z,7.87
2019-03-15T03:22:51.847Z,8.00
2019-03-15T03:25:18.019Z,8.23
2019-03-15T03:27:44.252Z,8.07
2019-03-15T03:30:10.554Z,7.50
2019-03-15T03:32:36.847Z,7.63
2019-03-15T03:35:04.776Z,7.63
2019-03-15T03:37:30.893Z,8.13
2019-03-15T03:39:57.001Z,7.80
2019-03-15T03:42:23.248Z,7.60
2019-03-15T03:44:49.654Z,7.17
2019-03-15T03:47:15.822Z,7.17
2019-03-15T03:49:42.008Z,7.57
2019-03-15T03:52:08.176Z,7.50
2019-03-15T03:54:34.479Z,7.67
2019-03-15T03:57:00.759Z,6.67
2019-03-15T03:59:26.971Z,6.60
2019-03-15T04:01:53.430Z,7.00
2019-03-15T04:04:19.614Z,6.70
2019-03-15T04:06:45.870Z,5.73
2019-03-15T04:09:12.177Z,5.50
2019-03-15T04:11:38.298Z,5.10
2019-03-15T04:14:04.664Z,5.17
2019-03-15T04:16:30.788Z,5.03
2019-03-15T04:18:56.932Z,5.27
2019-03-15T04:21:23.138Z,4.30
2019-03-15T04:23:49.287Z,4.67
2019-03-15T04:26:15.519Z,5.97
2019-03-15T04:28:41.728Z,5.00
2019-03-15T04:31:07.848Z,4.67
2019-03-15T04:33:34.048Z,4.37
2019-03-15T04:36:00.289Z,4.87
2019-03-15T04:38:26.501Z,4.67
2019-03-15T04:40:52.789Z,4.03
2019-03-15T04:43:18.998Z,5.03
2019-03-15T04:45:45.259Z,5.03
2019-03-15T04:48:11.496Z,5.00
2019-03-15T04:50:37.681Z,5.13
2019-03-15T04:53:03.804Z,4.90
2019-03-15T04:55:30.241Z,4.53
2019-03-15T04:57:56.344Z,4.70
2019-03-15T05:00:22.599Z,4.87
2019-03-15T05:02:48.725Z,4.17
2019-03-15T05:05:14.867Z,4.50
2019-03-15T05:07:41.066Z,3.97
2019-03-15T05:10:08.093Z,4.80
2019-03-15T05:12:34.386Z,4.30
2019-03-15T05:15:00.767Z,4.67
2019-03-15T05:17:26.990Z,4.60
2019-03-15T05:19:53.206Z,4.30
2019-03-15T05:22:19.362Z,4.30
2019-03-15T05:24:45.512Z,4.70
2019-03-15T05:27:11.836Z,5.13
2019-03-15T05:29:37.998Z,4.53
2019-03-15T05:32:04.329Z,4.27
2019-03-15T05:34:30.510Z,4.50
2019-03-15T05:36:56.768Z,4.50
2019-03-15T05:39:22.940Z,4.60
2019-03-15T05:41:49.047Z,4.07
2019-03-15T05:44:15.123Z,4.53
2019-03-15T05:46:41.443Z,4.70
2019-03-15T05:49:07.770Z,4.50
2019-03-15T05:51:33.926Z,4.07
2019-03-15T05:54:00.107Z,5.30
2019-03-15T05:56:26.328Z,4.63
2019-03-15T05:58:52.443Z,5.30
2019-03-15T06:01:18.675Z,5.87
2019-03-15T06:03:49.011Z,5.90
2019-03-15T06:06:12.899Z,6.47
2019-03-15T06:08:39.143Z,6.23
2019-03-15T06:11:05.452Z,6.90
2019-03-15T06:13:31.564Z,7.27
2019-03-15T06:15:57.706Z,8.60
2019-03-15T06:18:23.816Z,8.77
2019-03-15T06:20:49.968Z,8.70
2019-03-15T06:23:17.063Z,8.77
2019-03-15T06:25:43.232Z,9.53
2019-03-15T06:28:09.455Z,9.90
2019-03-15T06:30:35.546Z,10.33
2019-03-15T06:33:01.770Z,10.07
2019-03-15T06:35:28.049Z,9.67
2019-03-15T06:37:54.266Z,10.50
2019-03-15T06:40:20.469Z,10.07
2019-03-15T06:42:46.728Z,10.13
2019-03-15T06:45:13.495Z,10.53
2019-03-15T06:47:39.847Z,10.03
2019-03-15T06:50:07.032Z,10.17
2019-03-15T06:52:33.285Z,10.97
2019-03-15T06:55:00.723Z,9.90
2019-03-15T06:57:26.949Z,10.07
2019-03-15T06:59:53.088Z,10.17
2019-03-15T07:02:19.662Z,10.07
2019-03-15T07:04:45.914Z,10.23
2019-03-15T07:07:15.103Z,9.77
2019-03-15T07:09:41.271Z,9.57
2019-03-15T07:12:09.978Z,8.77
2019-03-15T07:14:36.292Z,9.73
2019-03-15T07:17:03.703Z,9.23
2019-03-15T07:19:30.646Z,8.20
2019-03-15T07:21:56.938Z,9.27
2019-03-15T07:24:25.641Z,8.60
2019-03-15T07:26:51.939Z,8.30
2019-03-15T07:29:19.081Z,8.33
2019-03-15T07:31:45.398Z,7.10
2019-03-15T07:34:13.923Z,7.53
2019-03-15T07:36:39.490Z,7.40
2019-03-15T07:39:05.929Z,7.47
2019-03-15T07:41:32.169Z,7.07
2019-03-15T07:43:58.334Z,7.30
2019-03-15T07:46:24.518Z,7.17
2019-03-15T07:48:51.834Z,7.40
2019-03-15T07:51:18.004Z,7.10
2019-03-15T07:53:44.252Z,6.77
2019-03-15T07:56:10.460Z,7.63
2019-03-15T07:58:37.710Z,7.87
2019-03-15T08:01:04.057Z,9.20
2019-03-15T08:03:30.268Z,8.57
2019-03-15T08:05:56.393Z,9.90
2019-03-15T08:08:22.668Z,9.17
2019-03-15T08:10:48.867Z,7.60
2019-03-15T08:13:15.061Z,9.03
2019-03-15T08:15:41.519Z,8.60
2019-03-15T08:18:07.597Z,10.23
2019-03-15T08:20:33.832Z,9.97
2019-03-15T08:22:59.916Z,10.47
2019-03-15T08:25:26.140Z,9.43
2019-03-15T08:27:52.241Z,11.07
2019-03-15T08:30:18.493Z,12.40
2019-03-15T08:32:44.790Z,11.80
2019-03-15T08:35:12.388Z,10.47
2019-03-15T08:37:38.697Z,13.13
2019-03-15T08:40:09.408Z,13.67
2019-03-15T08:42:35.734Z,14.53
2019-03-15T08:45:04.636Z,14.30
2019-03-15T08:47:30.884Z,13.27
2019-03-15T08:49:57.008Z,13.83
2019-03-15T08:52:23.110Z,14.20
2019-03-15T08:54:49.449Z,12.90
2019-03-15T08:57:15.524Z,13.80
2019-03-15T08:59:53.910Z,13.63
2019-03-15T09:02:09.842Z,13.30
2019-03-15T09:04:36.080Z,14.33
2019-03-15T09:07:02.377Z,14.53
2019-03-15T09:09:29.628Z,15.70
2019-03-15T09:11:55.815Z,14.03
2019-03-15T09:14:22.163Z,13.67
2019-03-15T09:16:49.273Z,12.93
2019-03-15T09:19:15.492Z,12.80
2019-03-15T09:21:41.596Z,14.03
2019-03-15T09:24:09.673Z,12.70
2019-03-15T09:26:35.798Z,13.90
2019-03-15T09:29:02.241Z,13.23
2019-03-15T09:31:28.556Z,14.10
2019-03-15T09:33:54.792Z,14.77
2019-03-15T09:36:20.917Z,16.13
2019-03-15T09:38:47.126Z,17.43
2019-03-15T09:41:13.303Z,16.10
2019-03-15T09:43:39.452Z,18.47
2019-03-15T09:46:05.703Z,17.57
2019-03-15T09:48:31.899Z,19.23
2019-03-15T09:50:58.028Z,19.23
2019-03-15T09:53:24.128Z,21.50
2019-03-15T09:55:50.436Z,19.10
2019-03-15T09:58:16.690Z,20.17
2019-03-15T10:00:42.805Z,20.47
2019-03-15T10:03:21.459Z,18.13
2019-03-15T10:05:37.185Z,20.93
2019-03-15T10:08:03.393Z,17.47
2019-03-15T10:10:29.566Z,17.90
2019-03-15T10:13:05.910Z,20.33
2019-03-15T10:15:26.461Z,20.20
2019-03-15T10:17:52.144Z,20.17
2019-03-15T10:20:18.443Z,18.40
2019-03-15T10:22:44.727Z,19.40
2019-03-15T10:25:12.256Z,21.30
2019-03-15T10:27:38.617Z,23.53
2019-03-15T10:30:16.250Z,19.50
2019-03-15T10:32:42.490Z,20.83
2019-03-15T10:35:10.794Z,18.80
2019-03-15T10:37:36.909Z,19.23
2019-03-15T10:40:09.554Z,15.10
2019-03-15T10:42:36.877Z,19.97
2019-03-15T10:45:06.695Z,20.30
2019-03-15T10:47:32.811Z,20.90
2019-03-15T10:49:58.946Z,21.97
2019-03-15T10:52:25.119Z,19.53
2019-03-15T10:54:51.231Z,21.07
2019-03-15T10:57:17.372Z,20.97
2019-03-15T10:59:43.605Z,20.67
2019-03-15T11:02:10.344Z,20.80
2019-03-15T11:04:36.458Z,17.70
2019-03-15T11:07:02.800Z,21.07
2019-03-15T11:09:29.244Z,20.37
2019-03-15T11:11:55.428Z,20.37
2019-03-15T11:14:21.568Z,21.50
2019-03-15T11:16:47.780Z,22.70
2019-03-15T11:19:15.615Z,21.13
2019-03-15T11:21:42.175Z,23.57
2019-03-15T11:24:08.388Z,22.07
2019-03-15T11:26:34.582Z,24.43
2019-03-15T11:29:00.939Z,23.67
2019-03-15T11:31:27.237Z,27.77
2019-03-15T11:33:53.562Z,25.70
2019-03-15T11:36:19.646Z,24.10
2019-03-15T11:38:45.862Z,21.00
2019-03-15T11:41:12.284Z,21.93
2019-03-15T11:43:38.428Z,25.87
2019-03-15T11:46:04.774Z,24.10
2019-03-15T11:48:31.123Z,20.17
2019-03-15T11:50:57.461Z,22.80
2019-03-15T11:53:23.650Z,18.93
2019-03-15T11:55:49.937Z,17.70
2019-03-15T11:58:16.029Z,19.07
2019-03-15T12:00:42.206Z,17.47
2019-03-15T12:03:08.330Z,15.43
2019-03-15T12:05:34.673Z,14.97
2019-03-15T12:08:00.899Z,12.37
2019-03-15T12:10:27.190Z,12.23
2019-03-15T12:12:53.339Z,11.50
2019-03-15T12:15:19.645Z,13.33
2019-03-15T12:17:45.881Z,11.83
2019-03-15T12:20:12.764Z,11.67
2019-03-15T12:22:39.234Z,10.50
2019-03-15T12:25:07.409Z,10.93
2019-03-15T12:27:33.623Z,9.33
2019-03-15T12:29:59.844Z,9.97
2019-03-15T12:32:26.073Z,8.60
2019-03-15T12:34:52.224Z,8.40
2019-03-15T12:37:18.381Z,9.73
2019-03-15T12:39:44.531Z,9.27
2019-03-15T12:42:10.850Z,9.20
2019-03-15T12:44:39.191Z,10.23
2019-03-15T12:47:06.319Z,9.03
2019-03-15T12:49:32.925Z,9.87
2019-03-15T12:51:59.065Z,9.70
2019-03-15T12:54:25.259Z,9.20
2019-03-15T12:56:54.049Z,10.33
2019-03-15T12:59:19.560Z,10.03
2019-03-15T13:01:45.737Z,9.97
2019-03-15T13:04:12.285Z,11.23
2019-03-15T13:06:39.509Z,8.73
2019-03-15T13:09:05.732Z,7.07
2019-03-15T13:11:32.046Z,6.80
2019-03-15T13:13:58.303Z,7.60
2019-03-15T13:16:24.571Z,6.20
2019-03-15T13:18:50.891Z,5.40
2019-03-15T13:21:17.030Z,5.40
2019-03-15T13:23:43.298Z,5.00
2019-03-15T13:26:09.444Z,4.57
2019-03-15T13:28:35.707Z,4.93
2019-03-15T13:31:01.902Z,4.70
2019-03-15T13:33:28.180Z,5.03
2019-03-15T13:35:54.424Z,5.30
2019-03-15T13:38:20.659Z,5.10
2019-03-15T13:40:46.878Z,6.27
2019-03-15T13:43:16.024Z,6.83
2019-03-15T13:45:44.778Z,8.17
2019-03-15T13:48:11.083Z,6.10
2019-03-15T13:50:37.327Z,5.50
2019-03-15T13:53:03.441Z,5.93
2019-03-15T13:55:29.532Z,6.27
2019-03-15T13:57:55.909Z,5.77
2019-03-15T14:00:22.190Z,5.93
2019-03-15T14:02:48.482Z,5.27
2019-03-15T14:05:14.717Z,4.67
2019-03-15T14:07:40.814Z,4.70
2019-03-15T14:10:11.887Z,5.37
2019-03-15T14:12:38.118Z,5.30
2019-03-15T14:15:07.906Z,5.90
2019-03-15T14:17:34.093Z,5.30
2019-03-15T14:20:00.411Z,5.03
2019-03-15T14:22:27.658Z,5.43
2019-03-15T14:24:53.787Z,5.03
2019-03-15T14:27:27.606Z,5.30
2019-03-15T14:29:48.310Z,4.90
2019-03-15T14:32:14.799Z,5.00
2019-03-15T14:34:41.007Z,5.30
2019-03-15T14:37:10.193Z,5.60
2019-03-15T14:39:35.743Z,3.87
2019-03-15T14:42:02.047Z,4.60
2019-03-15T14:44:28.229Z,4.93
2019-03-15T14:46:54.359Z,4.10
2019-03-15T14:49:20.559Z,4.37
2019-03-15T14:51:47.009Z,2.80
2019-03-15T14:54:13.249Z,3.23
2019-03-15T14:56:39.420Z,3.70
2019-03-15T14:59:05.664Z,3.30
2019-03-15T15:01:31.998Z,3.57
2019-03-15T15:03:58.259Z,2.60
2019-03-15T15:06:24.578Z,3.13
2019-03-15T15:08:50.912Z,3.40
2019-03-15T15:11:17.047Z,3.70
2019-03-15T15:13:43.287Z,4.33
2019-03-15T15:16:09.548Z,3.73
2019-03-15T15:18:35.664Z,4.07
2019-03-15T15:21:01.903Z,4.60
2019-03-15T15:23:28.247Z,4.33
2019-03-15T15:25:54.495Z,4.30
2019-03-15T15:28:20.620Z,4.20
2019-03-15T15:30:46.975Z,4.43
2019-03-15T15:33:13.257Z,4.73
2019-03-15T15:35:41.619Z,5.20
2019-03-15T15:38:07.728Z,4.77
2019-03-15T15:40:33.975Z,5.00
2019-03-15T15:43:00.426Z,5.70
2019-03-15T15:45:29.718Z,4.37
2019-03-15T15:47:57.500Z,4.90
2019-03-15T15:50:23.762Z,4.23
2019-03-15T15:52:49.970Z,4.90
2019-03-15T15:55:19.503Z,10.07
2019-03-15T15:57:47.645Z,5.30
2019-03-15T16:00:17.532Z,4.33
2019-03-15T16:02:43.927Z,6.17
2019-03-15T16:05:10.478Z,5.77
2019-03-15T16:07:36.790Z,4.70
2019-03-15T16:10:06.157Z,4.00
2019-03-15T16:12:32.300Z,4.50
2019-03-15T16:14:58.627Z,4.87
2019-03-15T16:17:24.777Z,4.63
2019-03-15T16:19:51.103Z,4.93
2019-03-15T16:22:17.310Z,4.47
2019-03-15T16:24:43.501Z,4.47
2019-03-15T16:27:09.643Z,4.83
2019-03-15T16:29:35.977Z,4.20
2019-03-15T16:32:02.406Z,4.00
2019-03-15T16:34:28.726Z,4.40
2019-03-15T16:36:54.953Z,4.80
2019-03-15T16:39:21.233Z,4.20
2019-03-15T16:41:47.345Z,4.47
2019-03-15T16:44:13.738Z,4.50
2019-03-15T16:46:39.962Z,4.40
2019-03-15T16:49:06.077Z,4.33
2019-03-15T16:51:32.247Z,4.00
2019-03-15T16:53:58.499Z,4.30
2019-03-15T16:56:24.920Z,4.10
2019-03-15T16:58:51.145Z,4.37
2019-03-15T17:01:17.716Z,4.03
2019-03-15T17:03:43.956Z,4.73
2019-03-15T17:06:10.310Z,4.00
2019-03-15T17:08:36.762Z,4.10
2019-03-15T17:11:03.488Z,3.70
2019-03-15T17:13:29.669Z,3.87
2019-03-15T17:15:56.096Z,3.70
2019-03-15T17:18:22.388Z,3.60
2019-03-15T17:20:49.739Z,3.17
2019-03-15T17:23:15.935Z,3.50
2019-03-15T17:25:42.207Z,3.20
2019-03-15T17:28:08.446Z,2.97
2019-03-15T17:30:36.392Z,3.00
2019-03-15T17:33:05.966Z,2.70
2019-03-15T17:35:30.797Z,2.70
2019-03-15T17:37:57.097Z,3.20
2019-03-15T17:40:23.413Z,3.50
2019-03-15T17:42:49.740Z,2.70
2019-03-15T17:45:16.062Z,3.80
2019-03-15T17:47:42.405Z,2.93
2019-03-15T17:50:15.346Z,2.90
2019-03-15T17:52:41.690Z,3.00
2019-03-15T17:55:08.150Z,3.37
2019-03-15T17:57:34.500Z,3.37
2019-03-15T18:00:33.091Z,2.73
2019-03-15T18:02:59.423Z,3.57
2019-03-15T18:05:25.853Z,3.33
2019-03-15T18:07:52.299Z,3.20
2019-03-15T18:10:21.755Z,3.00
2019-03-15T18:12:48.013Z,2.80
2019-03-15T18:15:14.320Z,2.57
2019-03-15T18:17:40.698Z,2.70
2019-03-15T18:20:07.815Z,2.90
2019-03-15T18:22:34.256Z,3.03
2019-03-15T18:25:00.625Z,2.63
2019-03-15T18:27:27.069Z,2.73
2019-03-15T18:29:53.570Z,2.77
2019-03-15T18:32:20.418Z,3.20
2019-03-15T18:34:47.189Z,2.80
2019-03-15T18:37:13.841Z,3.20
2019-03-15T18:39:40.176Z,2.90
2019-03-15T18:42:06.509Z,2.87
2019-03-15T18:44:32.975Z,2.37
2019-03-15T18:46:59.194Z,3.00
2019-03-15T18:49:26.631Z,2.47
2019-03-15T18:51:52.856Z,2.37
2019-03-15T18:54:19.287Z,2.50
2019-03-15T18:56:45.517Z,2.33
2019-03-15T18:59:11.885Z,2.20
2019-03-15T19:01:38.291Z,2.80
2019-03-15T19:04:04.676Z,2.03
2019-03-15T19:06:30.923Z,2.67
2019-03-15T19:08:57.271Z,2.70
2019-03-15T19:11:23.612Z,2.80
2019-03-15T19:13:49.955Z,2.63
2019-03-15T19:16:20.255Z,2.80
2019-03-15T19:18:44.365Z,2.70
2019-03-15T19:21:10.659Z,3.30
2019-03-15T19:23:37.286Z,2.60
2019-03-15T19:26:03.689Z,2.53
2019-03-15T19:28:30.012Z,2.83
2019-03-15T19:30:56.394Z,2.70
2019-03-15T19:33:22.751Z,2.77
2019-03-15T19:35:49.154Z,2.63
2019-03-15T19:38:15.375Z,2.90
2019-03-15T19:40:41.627Z,3.73
2019-03-15T19:43:08.090Z,2.70
2019-03-15T19:45:34.424Z,2.77
2019-03-15T19:48:00.609Z,3.00
2019-03-15T19:50:27.054Z,2.93
2019-03-15T19:52:53.417Z,2.60
2019-03-15T19:55:19.820Z,2.80
2019-03-15T19:57:46.311Z,3.33
2019-03-15T20:00:19.464Z,3.00
2019-03-15T20:02:45.977Z,2.67
2019-03-15T20:05:12.691Z,3.00
2019-03-15T20:07:39.101Z,3.20
2019-03-15T20:10:16.115Z,2.67
2019-03-15T20:12:40.845Z,2.67
2019-03-15T20:15:09.595Z,2.60
2019-03-15T20:17:36.083Z,3.00
2019-03-15T20:20:04.965Z,2.50
2019-03-15T20:22:31.630Z,2.77
2019-03-15T20:24:58.961Z,2.60
2019-03-15T20:27:25.641Z,3.10
2019-03-15T20:29:52.015Z,2.37
2019-03-15T20:32:18.369Z,2.63
2019-03-15T20:34:44.843Z,3.13
2019-03-15T20:37:11.190Z,2.93
2019-03-15T20:39:37.678Z,3.00
2019-03-15T20:42:04.761Z,2.93
2019-03-15T20:44:31.050Z,2.57
2019-03-15T20:46:57.191Z,2.80
2019-03-15T20:49:23.423Z,2.90
2019-03-15T20:51:49.791Z,3.03
2019-03-15T20:54:16.290Z,3.43
2019-03-15T20:56:42.653Z,2.57
2019-03-15T20:59:08.940Z,2.77
2019-03-15T21:01:35.274Z,2.90
2019-03-15T21:04:02.906Z,2.67
2019-03-15T21:06:29.423Z,2.30
2019-03-15T21:08:58.301Z,2.57
2019-03-15T21:11:24.858Z,3.10
2019-03-15T21:13:51.089Z,3.80
2019-03-15T21:16:18.309Z,2.40
2019-03-15T21:18:44.983Z,2.83
2019-03-15T21:21:11.499Z,2.60
2019-03-15T21:23:37.608Z,3.17
2019-03-15T21:26:03.967Z,2.53
2019-03-15T21:28:30.409Z,2.50
2019-03-15T21:30:56.851Z,2.50
2019-03-15T21:33:23.469Z,2.67
2019-03-15T21:35:49.745Z,2.60
2019-03-15T21:38:15.975Z,2.33
2019-03-15T21:40:42.176Z,3.33
2019-03-15T21:43:08.708Z,2.37
2019-03-15T21:45:35.123Z,2.50
2019-03-15T21:48:01.546Z,3.03
2019-03-15T21:50:27.796Z,2.93
2019-03-15T21:52:54.223Z,2.80
2019-03-15T21:55:20.789Z,3.00
2019-03-15T21:57:46.994Z,2.80
2019-03-15T22:00:14.427Z,2.83
2019-03-15T22:02:41.792Z,2.90
2019-03-15T22:05:08.242Z,2.83
2019-03-15T22:07:34.640Z,2.90
2019-03-15T22:10:00.965Z,2.90
2019-03-15T22:12:28.456Z,2.90
2019-03-15T22:14:54.722Z,2.53
2019-03-15T22:17:21.199Z,2.73
2019-03-15T22:19:47.610Z,2.87
2019-03-15T22:22:13.938Z,3.20
2019-03-15T22:24:40.317Z,3.20
2019-03-15T22:27:06.905Z,2.63
2019-03-15T22:29:33.217Z,3.23
2019-03-15T22:31:59.645Z,2.90
2019-03-15T22:34:26.012Z,3.30
2019-03-15T22:36:52.407Z,2.90
2019-03-15T22:39:18.847Z,3.00
2019-03-15T22:41:45.218Z,3.33
2019-03-15T22:44:11.563Z,2.90
2019-03-15T22:46:37.890Z,3.13
2019-03-15T22:49:04.356Z,3.20
2019-03-15T22:51:30.794Z,3.30
2019-03-15T22:53:57.198Z,3.30
2019-03-15T22:56:23.381Z,3.57
2019-03-15T22:58:49.544Z,3.20
2019-03-15T23:01:29.310Z,3.10
2019-03-15T23:03:44.014Z,3.17
2019-03-15T23:06:10.482Z,3.23
2019-03-15T23:08:36.591Z,3.60
2019-03-15T23:11:03.054Z,4.07
2019-03-15T23:13:29.527Z,3.70
2019-03-15T23:15:55.713Z,3.60
2019-03-15T23:18:21.965Z,4.00
2019-03-15T23:20:48.240Z,3.57
2019-03-15T23:23:23.684Z,3.60
2019-03-15T23:25:43.248Z,4.17
2019-03-15T23:28:09.996Z,3.50
2019-03-15T23:30:36.456Z,3.83
2019-03-15T23:33:02.794Z,3.23
2019-03-15T23:35:29.130Z,3.70
2019-03-15T23:37:55.375Z,3.40
2019-03-15T23:40:21.496Z,3.20
2019-03-15T23:42:47.790Z,3.37
2019-03-15T23:45:14.127Z,3.50
2019-03-15T23:47:40.389Z,3.37
2019-03-15T23:50:13.572Z,3.20
2019-03-15T23:52:39.770Z,3.50
2019-03-15T23:55:06.186Z,3.40
2019-03-15T23:57:32.279Z,3.83
2019-03-15T23:59:58.409Z,3.57
